Terminal Aerodrome Forecast
Issued by NWS Detroit/Pontiac, MI

Home | Current Version | Previous Version | Text Only | Print | Product List | Glossary On
Versions: 1 2 3 4 5 6 7 8 9 10 11 12 13 14 15 16
000
FTUS43 KDTX 040527
TAFFNT
TAF
KFNT 040527Z 0406/0506 20005KT P6SM SCT060 BKN100
      TEMPO 0406/0409 -SHRA OVC070
     FM041200 17004KT 6SM -SHRA SCT018 BKN040 OVC060
     FM041600 36004KT 5SM SHRA BR SCT022 OVC045
     FM042000 01012KT 4SM -SHRA BR SCT008 BKN014 OVC022
     FM042300 04010KT P6SM OVC012
     FM050200 02008KT P6SM SCT006 BKN022=

USA.gov is the U.S. government's official web portal to all federal, state and local government web resources and services.